createdAt,value
2022-08-24T00:01:40.342Z,100.00
2022-08-24T00:04:08.179Z,100.00
2022-08-24T00:06:35.937Z,100.00
2022-08-24T00:09:03.744Z,100.00
2022-08-24T00:11:31.497Z,100.00
2022-08-24T00:14:00.597Z,100.00
2022-08-24T00:16:29.389Z,100.00
2022-08-24T00:18:57.272Z,100.00
2022-08-24T00:21:25.831Z,100.00
2022-08-24T00:23:54.048Z,100.00
2022-08-24T00:26:28.826Z,100.00
2022-08-24T00:28:57.462Z,100.00
2022-08-24T00:31:26.796Z,100.00
2022-08-24T00:33:54.767Z,100.00
2022-08-24T00:36:22.547Z,100.00
2022-08-24T00:38:50.572Z,100.00
2022-08-24T00:41:19.011Z,100.00
2022-08-24T00:43:55.230Z,100.00
2022-08-24T00:46:27.632Z,100.00
2022-08-24T00:49:01.311Z,100.00
2022-08-24T00:51:34.508Z,100.00
2022-08-24T00:54:08.529Z,100.00
2022-08-24T00:56:42.129Z,100.00
2022-08-24T00:59:13.488Z,100.00
2022-08-24T01:01:44.296Z,100.00
2022-08-24T01:04:17.953Z,100.00
2022-08-24T01:06:46.185Z,100.00
2022-08-24T01:09:14.333Z,100.00
2022-08-24T01:11:44.908Z,100.00
2022-08-24T01:14:12.727Z,100.00
2022-08-24T01:16:59.694Z,100.00
2022-08-24T01:19:34.171Z,100.00
2022-08-24T01:22:16.006Z,100.00
2022-08-24T01:24:46.069Z,100.00
2022-08-24T01:27:15.853Z,100.00
2022-08-24T01:29:46.698Z,100.00
2022-08-24T01:32:15.500Z,100.00
2022-08-24T01:34:43.793Z,100.00
2022-08-24T01:37:12.125Z,100.00
2022-08-24T01:39:43.573Z,100.00
2022-08-24T01:42:14.438Z,100.00
2022-08-24T01:44:46.357Z,100.00
2022-08-24T01:47:15.535Z,100.00
2022-08-24T01:49:46.945Z,100.00
2022-08-24T01:52:18.392Z,100.00
2022-08-24T01:54:46.492Z,100.00
2022-08-24T01:57:16.309Z,100.00
2022-08-24T01:59:45.211Z,100.00
2022-08-24T02:02:17.215Z,100.00
2022-08-24T02:04:45.022Z,100.00
2022-08-24T02:07:13.246Z,100.00
2022-08-24T02:09:41.448Z,100.00
2022-08-24T02:12:09.941Z,100.00
2022-08-24T02:14:39.130Z,100.00
2022-08-24T02:17:08.988Z,100.00
2022-08-24T02:19:37.508Z,100.00
2022-08-24T02:22:07.574Z,100.00
2022-08-24T02:24:35.478Z,100.00
2022-08-24T02:27:03.510Z,100.00
2022-08-24T02:29:31.268Z,100.00
2022-08-24T02:32:00.430Z,100.00
2022-08-24T02:34:28.189Z,100.00
2022-08-24T02:36:55.942Z,100.00
2022-08-24T02:39:23.720Z,100.00
2022-08-24T02:41:53.277Z,100.00
2022-08-24T02:44:21.771Z,100.00
2022-08-24T02:46:50.038Z,100.00
2022-08-24T02:49:21.373Z,100.00
2022-08-24T02:51:49.135Z,100.00
2022-08-24T02:54:18.437Z,100.00
2022-08-24T02:56:46.987Z,100.00
2022-08-24T02:59:15.417Z,100.00
2022-08-24T03:01:43.432Z,100.00
2022-08-24T03:04:11.641Z,100.00
2022-08-24T03:06:40.977Z,100.00
2022-08-24T03:09:09.367Z,100.00
2022-08-24T03:11:37.625Z,100.00
2022-08-24T03:14:05.429Z,100.00
2022-08-24T03:16:33.295Z,100.00
2022-08-24T03:19:01.082Z,100.00
2022-08-24T03:21:29.152Z,100.00
2022-08-24T03:23:58.283Z,100.00
2022-08-24T03:26:26.117Z,100.00
2022-08-24T03:28:54.261Z,100.00
2022-08-24T03:31:22.599Z,100.00
2022-08-24T03:33:51.322Z,100.00
2022-08-24T03:36:19.351Z,100.00
2022-08-24T03:38:47.205Z,100.00
2022-08-24T03:41:16.347Z,100.00
2022-08-24T03:43:47.039Z,100.00
2022-08-24T03:46:17.726Z,100.00
2022-08-24T03:48:45.498Z,100.00
2022-08-24T03:51:15.376Z,100.00
2022-08-24T03:53:43.826Z,100.00
2022-08-24T03:56:12.648Z,100.00
2022-08-24T03:58:42.618Z,100.00
2022-08-24T04:01:11.520Z,100.00
2022-08-24T04:03:41.077Z,100.00
2022-08-24T04:06:11.807Z,100.00
2022-08-24T04:08:41.195Z,100.00
2022-08-24T04:11:12.305Z,100.00
2022-08-24T04:13:41.470Z,100.00
2022-08-24T04:16:10.775Z,100.00
2022-08-24T04:18:38.548Z,100.00
2022-08-24T04:21:07.294Z,100.00
2022-08-24T04:23:47.031Z,100.00
2022-08-24T04:26:16.936Z,100.00
2022-08-24T04:29:07.929Z,100.00
2022-08-24T04:31:36.747Z,100.00
2022-08-24T04:34:05.233Z,100.00
2022-08-24T04:36:33.031Z,100.00
2022-08-24T04:39:02.152Z,100.00
2022-08-24T04:41:31.278Z,100.00
2022-08-24T04:44:00.070Z,100.00
2022-08-24T04:46:29.914Z,100.00
2022-08-24T04:48:57.738Z,100.00
2022-08-24T04:51:25.560Z,100.00
2022-08-24T04:53:53.317Z,100.00
2022-08-24T04:56:23.937Z,100.00
2022-08-24T04:58:51.900Z,100.00
2022-08-24T05:01:22.091Z,100.00
2022-08-24T05:03:54.239Z,100.00
2022-08-24T05:06:26.741Z,100.00
2022-08-24T05:08:54.645Z,100.00
2022-08-24T05:11:23.792Z,100.00
2022-08-24T05:13:53.607Z,100.00
2022-08-24T05:16:22.623Z,100.00
2022-08-24T05:18:51.846Z,100.00
2022-08-24T05:21:22.257Z,100.00
2022-08-24T05:23:50.424Z,100.00
2022-08-24T05:26:20.767Z,100.00
2022-08-24T05:28:48.706Z,100.00
2022-08-24T05:31:19.153Z,100.00
2022-08-24T05:33:48.087Z,100.00
2022-08-24T05:36:19.812Z,100.00
2022-08-24T05:38:48.929Z,100.00
2022-08-24T05:41:17.141Z,100.00
2022-08-24T05:43:45.348Z,100.00
2022-08-24T05:46:14.316Z,100.00
2022-08-24T05:48:42.300Z,100.00
2022-08-24T05:51:11.325Z,100.00
2022-08-24T05:53:41.640Z,100.00
2022-08-24T05:56:13.695Z,100.00
2022-08-24T05:58:42.115Z,100.00
2022-08-24T06:01:12.177Z,100.00
2022-08-24T06:03:40.690Z,100.00
2022-08-24T06:06:09.806Z,100.00
2022-08-24T06:08:41.447Z,100.00
2022-08-24T06:11:11.307Z,100.00
2022-08-24T06:13:39.753Z,100.00
2022-08-24T06:16:24.543Z,100.00
2022-08-24T06:18:54.601Z,100.00
2022-08-24T06:21:28.210Z,100.00
2022-08-24T06:23:56.817Z,100.00
2022-08-24T06:26:45.097Z,100.00
2022-08-24T06:29:17.830Z,100.00
2022-08-24T06:31:48.473Z,100.00
2022-08-24T06:34:22.869Z,100.00
2022-08-24T06:36:50.883Z,100.00
2022-08-24T06:39:19.525Z,100.00
2022-08-24T06:41:48.712Z,100.00
2022-08-24T06:44:16.536Z,100.00
2022-08-24T06:46:44.411Z,100.00
2022-08-24T06:49:12.250Z,100.00
2022-08-24T06:51:40.123Z,100.00
2022-08-24T06:54:07.951Z,100.00
2022-08-24T06:56:37.280Z,100.00
2022-08-24T06:59:07.362Z,100.00
2022-08-24T07:01:35.345Z,100.00
2022-08-24T07:04:03.143Z,100.00
2022-08-24T07:06:31.100Z,100.00
2022-08-24T07:08:59.010Z,100.00
2022-08-24T07:11:26.834Z,100.00
2022-08-24T07:13:54.612Z,100.00
2022-08-24T07:16:23.815Z,100.00
2022-08-24T07:18:52.064Z,100.00
2022-08-24T07:21:22.183Z,100.00
2022-08-24T07:23:50.776Z,100.00
2022-08-24T07:26:22.767Z,100.00
2022-08-24T07:28:51.764Z,100.00
2022-08-24T07:31:21.100Z,100.00
2022-08-24T07:33:50.440Z,100.00
2022-08-24T07:36:22.644Z,100.00
2022-08-24T07:38:52.826Z,100.00
2022-08-24T07:41:51.397Z,100.00
2022-08-24T07:44:12.580Z,100.00
2022-08-24T07:46:41.765Z,100.00
2022-08-24T07:49:29.481Z,100.00
2022-08-24T07:52:00.332Z,100.00
2022-08-24T07:54:28.818Z,100.00
2022-08-24T07:56:57.328Z,100.00
2022-08-24T07:59:25.094Z,100.00
2022-08-24T08:01:52.929Z,100.00
2022-08-24T08:04:25.091Z,100.00
2022-08-24T08:06:53.509Z,100.00
2022-08-24T08:09:21.606Z,100.00
2022-08-24T08:11:49.369Z,100.00
2022-08-24T08:14:17.155Z,100.00
2022-08-24T08:16:44.939Z,100.00
2022-08-24T08:19:12.840Z,100.00
2022-08-24T08:22:05.896Z,100.00
2022-08-24T08:24:33.861Z,100.00
2022-08-24T08:27:01.687Z,100.00
2022-08-24T08:29:32.521Z,100.00
2022-08-24T08:32:01.162Z,100.00
2022-08-24T08:34:30.057Z,100.00
2022-08-24T08:36:59.813Z,100.00
2022-08-24T08:39:28.568Z,100.00
2022-08-24T08:42:30.768Z,100.00
2022-08-24T08:45:08.982Z,100.00
2022-08-24T08:48:21.858Z,100.00
2022-08-24T08:51:34.738Z,100.00
2022-08-24T08:54:14.542Z,100.00
2022-08-24T08:56:54.981Z,100.00
2022-08-24T08:59:39.143Z,100.00
2022-08-24T09:02:23.140Z,100.00
2022-08-24T09:05:15.951Z,96.99
2022-08-24T09:07:49.943Z,95.23
2022-08-24T09:10:49.008Z,88.47
2022-08-24T09:13:33.407Z,92.37
2022-08-24T09:16:12.593Z,93.89
2022-08-24T09:18:56.264Z,93.81
2022-08-24T09:21:54.551Z,91.93
2022-08-24T09:24:41.033Z,85.12
2022-08-24T09:27:22.573Z,83.05
2022-08-24T09:30:07.266Z,87.86
2022-08-24T09:32:55.811Z,83.87
2022-08-24T09:35:33.353Z,93.64
2022-08-24T09:38:06.222Z,88.61
2022-08-24T09:40:52.049Z,79.99
2022-08-24T09:43:53.364Z,81.64
2022-08-24T09:47:05.977Z,78.71
2022-08-24T09:50:06.395Z,81.56
2022-08-24T09:53:16.009Z,81.16
2022-08-24T09:56:06.068Z,77.44
2022-08-24T09:58:50.441Z,76.56
2022-08-24T10:01:28.695Z,78.28
2022-08-24T10:04:09.908Z,83.49
2022-08-24T10:06:50.270Z,86.77
2022-08-24T10:09:38.520Z,83.97
2022-08-24T10:12:28.953Z,82.13
2022-08-24T10:15:05.498Z,81.54
2022-08-24T10:17:44.527Z,81.85
2022-08-24T10:20:23.784Z,78.79
2022-08-24T10:23:08.258Z,75.74
2022-08-24T10:25:41.638Z,77.46
2022-08-24T10:28:34.971Z,80.28
2022-08-24T10:31:09.660Z,80.02
2022-08-24T10:33:52.723Z,78.26
2022-08-24T10:36:50.570Z,77.59
2022-08-24T10:40:02.170Z,73.72
2022-08-24T10:43:02.461Z,72.30
2022-08-24T10:46:02.244Z,66.62
2022-08-24T10:49:09.959Z,68.82
2022-08-24T10:51:54.329Z,70.60
2022-08-24T10:54:23.222Z,69.91
2022-08-24T10:57:01.331Z,71.21
2022-08-24T10:59:35.086Z,67.53
2022-08-24T11:02:12.583Z,69.86
2022-08-24T11:04:43.448Z,67.98
2022-08-24T11:07:19.068Z,70.17
2022-08-24T11:09:53.483Z,65.58
2022-08-24T11:12:30.597Z,63.29
2022-08-24T11:15:00.930Z,67.36
2022-08-24T11:17:32.071Z,63.15
2022-08-24T11:20:01.304Z,64.70
2022-08-24T11:22:34.140Z,66.07
2022-08-24T11:25:08.687Z,62.22
2022-08-24T11:27:39.382Z,65.84
2022-08-24T11:30:12.996Z,67.60
2022-08-24T11:32:43.813Z,69.25
2022-08-24T11:35:24.675Z,68.35
2022-08-24T11:37:55.301Z,69.28
2022-08-24T11:40:27.601Z,72.86
2022-08-24T11:43:17.866Z,68.03
2022-08-24T11:45:53.115Z,67.39
2022-08-24T11:48:36.301Z,65.87
2022-08-24T11:51:13.470Z,66.42
2022-08-24T11:53:53.397Z,70.20
2022-08-24T11:56:29.131Z,73.11
2022-08-24T11:59:06.121Z,77.29
2022-08-24T12:01:42.803Z,74.29
2022-08-24T12:04:23.498Z,73.10
2022-08-24T12:07:01.030Z,73.04
2022-08-24T12:09:42.406Z,72.91
2022-08-24T12:12:18.093Z,73.68
2022-08-24T12:14:51.361Z,74.65
2022-08-24T12:17:25.804Z,70.25
2022-08-24T12:20:00.346Z,70.96
2022-08-24T12:22:31.127Z,73.84
2022-08-24T12:25:23.087Z,74.21
2022-08-24T12:27:53.320Z,77.61
2022-08-24T12:30:21.049Z,76.01
2022-08-24T12:32:53.746Z,81.28
2022-08-24T12:35:28.085Z,81.67
2022-08-24T12:38:02.911Z,78.10
2022-08-24T12:40:36.882Z,78.91
2022-08-24T12:43:08.630Z,77.42
2022-08-24T12:45:37.931Z,81.37
2022-08-24T12:48:12.521Z,80.52
2022-08-24T12:50:48.381Z,79.86
2022-08-24T12:53:48.207Z,81.69
2022-08-24T12:56:44.070Z,85.48
2022-08-24T12:59:20.041Z,84.94
2022-08-24T13:01:57.978Z,84.99
2022-08-24T13:04:35.540Z,86.05
2022-08-24T13:07:07.569Z,86.05
2022-08-24T13:09:39.808Z,89.81
2022-08-24T13:12:50.418Z,88.57
2022-08-24T13:15:28.041Z,84.73
2022-08-24T13:18:02.534Z,80.15
2022-08-24T13:20:53.532Z,78.94
2022-08-24T13:23:23.364Z,80.73
2022-08-24T13:25:58.573Z,85.95
2022-08-24T13:28:40.173Z,79.13
2022-08-24T13:31:28.419Z,77.34
2022-08-24T13:34:00.114Z,76.97
2022-08-24T13:37:03.428Z,74.62
2022-08-24T13:39:50.363Z,76.23
2022-08-24T13:42:47.590Z,78.33
2022-08-24T13:45:27.477Z,78.28
2022-08-24T13:48:04.536Z,74.99
2022-08-24T13:50:37.905Z,77.54
2022-08-24T13:53:37.411Z,75.56
2022-08-24T13:56:38.968Z,75.68
2022-08-24T13:59:22.474Z,78.05
2022-08-24T14:02:06.547Z,78.83
2022-08-24T14:04:48.944Z,74.93
2022-08-24T14:07:21.721Z,75.23
2022-08-24T14:10:08.013Z,73.53
2022-08-24T14:12:50.540Z,74.20
2022-08-24T14:15:27.482Z,78.18
2022-08-24T14:18:10.469Z,75.45
2022-08-24T14:21:05.594Z,74.35
2022-08-24T14:23:52.303Z,77.02
2022-08-24T14:26:58.409Z,78.29
2022-08-24T14:29:48.343Z,82.25
2022-08-24T14:32:40.955Z,85.13
2022-08-24T14:35:32.741Z,86.17
2022-08-24T14:38:12.593Z,86.12
2022-08-24T14:40:54.390Z,88.24
2022-08-24T14:43:32.040Z,88.77
2022-08-24T14:46:09.446Z,87.92
2022-08-24T14:48:49.169Z,90.16
2022-08-24T14:51:39.200Z,90.42
2022-08-24T14:54:17.325Z,94.15
2022-08-24T14:57:08.149Z,90.29
2022-08-24T14:59:49.296Z,91.40
2022-08-24T15:02:48.501Z,90.53
2022-08-24T15:05:25.384Z,91.81
2022-08-24T15:07:56.434Z,94.33
2022-08-24T15:10:28.863Z,97.40
2022-08-24T15:13:03.666Z,100.00
2022-08-24T15:15:36.405Z,100.00
2022-08-24T15:18:10.142Z,100.00
2022-08-24T15:20:59.062Z,100.00
2022-08-24T15:23:41.867Z,100.00
2022-08-24T15:26:16.499Z,94.66
2022-08-24T15:28:55.242Z,92.43
2022-08-24T15:31:26.932Z,92.77
2022-08-24T15:33:57.768Z,90.22
2022-08-24T15:36:28.247Z,95.19
2022-08-24T15:38:56.070Z,91.61
2022-08-24T15:41:28.688Z,92.77
2022-08-24T15:44:01.107Z,90.34
2022-08-24T15:46:33.583Z,90.07
2022-08-24T15:49:05.157Z,89.15
2022-08-24T15:51:44.877Z,83.75
2022-08-24T15:56:46.818Z,88.60
2022-08-24T15:59:28.074Z,95.03
2022-08-24T16:02:15.552Z,91.93
2022-08-24T16:04:47.570Z,97.44
2022-08-24T16:07:23.693Z,100.00
2022-08-24T16:10:03.784Z,94.74
2022-08-24T16:12:32.662Z,97.42
2022-08-24T16:15:13.276Z,99.58
2022-08-24T16:17:50.545Z,99.63
2022-08-24T16:20:34.394Z,100.00
2022-08-24T16:23:07.475Z,92.77
2022-08-24T16:25:41.022Z,86.82
2022-08-24T16:28:13.854Z,83.01
2022-08-24T16:30:50.151Z,79.69
2022-08-24T16:33:45.759Z,81.98
2022-08-24T16:36:15.509Z,81.45
2022-08-24T16:38:47.708Z,81.27
2022-08-24T16:41:19.175Z,83.08
2022-08-24T16:43:48.042Z,85.30
2022-08-24T16:46:21.036Z,85.94
2022-08-24T16:48:48.971Z,87.51
2022-08-24T16:51:16.805Z,85.89
2022-08-24T16:53:46.039Z,84.81
2022-08-24T16:56:16.648Z,77.42
2022-08-24T16:58:47.333Z,76.92
2022-08-24T17:01:15.741Z,80.61
2022-08-24T17:03:43.717Z,87.32
2022-08-24T17:06:12.418Z,92.66
2022-08-24T17:08:41.271Z,99.76
2022-08-24T17:11:10.784Z,100.00
2022-08-24T17:13:49.371Z,100.00
2022-08-24T17:16:18.896Z,100.00
2022-08-24T17:18:46.936Z,100.00
2022-08-24T17:21:14.753Z,100.00
2022-08-24T17:23:43.333Z,100.00
2022-08-24T17:26:20.790Z,100.00
2022-08-24T17:28:52.334Z,100.00
2022-08-24T17:31:20.371Z,100.00
2022-08-24T17:33:48.518Z,100.00
2022-08-24T17:36:17.822Z,100.00
2022-08-24T17:38:54.496Z,100.00
2022-08-24T17:41:25.997Z,100.00
2022-08-24T17:43:54.286Z,100.00
2022-08-24T17:46:22.489Z,100.00
2022-08-24T17:48:50.547Z,100.00
2022-08-24T17:51:18.388Z,100.00
2022-08-24T17:53:46.155Z,100.00
2022-08-24T17:56:15.869Z,100.00
2022-08-24T17:59:02.449Z,100.00
2022-08-24T18:01:31.498Z,100.00
2022-08-24T18:03:59.372Z,100.00
2022-08-24T18:06:28.953Z,100.00
2022-08-24T18:08:58.363Z,100.00
2022-08-24T18:11:26.607Z,100.00
2022-08-24T18:13:55.935Z,100.00
2022-08-24T18:16:27.477Z,100.00
2022-08-24T18:18:56.131Z,100.00
2022-08-24T18:21:24.274Z,100.00
2022-08-24T18:23:53.066Z,100.00
2022-08-24T18:26:25.976Z,100.00
2022-08-24T18:29:00.253Z,100.00
2022-08-24T18:31:30.039Z,100.00
2022-08-24T18:33:58.010Z,100.00
2022-08-24T18:36:25.811Z,100.00
2022-08-24T18:38:54.368Z,100.00
2022-08-24T18:41:22.407Z,100.00
2022-08-24T18:43:50.452Z,100.00
2022-08-24T18:46:19.674Z,100.00
2022-08-24T18:48:47.614Z,100.00
2022-08-24T18:51:19.483Z,100.00
2022-08-24T18:53:48.787Z,100.00
2022-08-24T18:56:16.708Z,100.00
2022-08-24T18:58:44.556Z,100.00
2022-08-24T19:01:13.368Z,100.00
2022-08-24T19:03:43.575Z,100.00
2022-08-24T19:06:11.543Z,100.00
2022-08-24T19:08:39.399Z,100.00
2022-08-24T19:11:08.224Z,100.00
2022-08-24T19:13:37.935Z,100.00
2022-08-24T19:16:06.013Z,100.00
2022-08-24T19:18:34.560Z,100.00
2022-08-24T19:21:03.934Z,100.00
2022-08-24T19:23:36.114Z,100.00
2022-08-24T19:26:04.791Z,100.00
2022-08-24T19:28:33.260Z,100.00
2022-08-24T19:31:04.064Z,100.00
2022-08-24T19:33:37.038Z,100.00
2022-08-24T19:36:07.155Z,100.00
2022-08-24T19:38:35.138Z,100.00
2022-08-24T19:41:12.778Z,100.00
2022-08-24T19:43:56.834Z,100.00
2022-08-24T19:46:25.038Z,100.00
2022-08-24T19:48:52.905Z,100.00
2022-08-24T19:51:22.201Z,100.00
2022-08-24T19:53:50.019Z,100.00
2022-08-24T19:56:17.963Z,100.00
2022-08-24T19:58:48.590Z,100.00
2022-08-24T20:01:20.378Z,100.00
2022-08-24T20:03:48.267Z,100.00
2022-08-24T20:06:17.688Z,100.00
2022-08-24T20:08:48.403Z,100.00
2022-08-24T20:11:17.136Z,100.00
2022-08-24T20:13:45.015Z,100.00
2022-08-24T20:16:16.453Z,100.00
2022-08-24T20:18:44.583Z,100.00
2022-08-24T20:21:12.786Z,100.00
2022-08-24T20:23:41.113Z,100.00
2022-08-24T20:26:12.332Z,100.00
2022-08-24T20:28:43.675Z,100.00
2022-08-24T20:31:11.544Z,100.00
2022-08-24T20:33:39.923Z,100.00
2022-08-24T20:36:09.325Z,100.00
2022-08-24T20:38:37.490Z,100.00
2022-08-24T20:41:05.364Z,100.00
2022-08-24T20:43:34.601Z,100.00
2022-08-24T20:46:02.728Z,100.00
2022-08-24T20:48:32.563Z,100.00
2022-08-24T20:51:01.405Z,100.00
2022-08-24T20:53:29.437Z,100.00
2022-08-24T20:56:00.172Z,100.00
2022-08-24T20:58:28.078Z,100.00
2022-08-24T21:00:57.290Z,100.00
2022-08-24T21:03:25.116Z,100.00
2022-08-24T21:05:53.443Z,100.00
2022-08-24T21:08:21.410Z,100.00
2022-08-24T21:10:49.556Z,100.00
2022-08-24T21:13:17.370Z,100.00
2022-08-24T21:15:45.867Z,100.00
2022-08-24T21:18:15.759Z,100.00
2022-08-24T21:21:00.755Z,100.00
2022-08-24T21:23:31.399Z,100.00
2022-08-24T21:26:00.208Z,100.00
2022-08-24T21:28:28.196Z,100.00
2022-08-24T21:30:56.023Z,100.00
2022-08-24T21:33:42.473Z,100.00
2022-08-24T21:36:11.583Z,100.00
2022-08-24T21:38:39.535Z,100.00
2022-08-24T21:41:13.175Z,100.00
2022-08-24T21:43:40.881Z,100.00
2022-08-24T21:46:09.631Z,100.00
2022-08-24T21:48:39.787Z,100.00
2022-08-24T21:51:07.827Z,100.00
2022-08-24T21:53:35.634Z,100.00
2022-08-24T21:56:03.760Z,100.00
2022-08-24T21:58:31.478Z,100.00
2022-08-24T22:00:59.533Z,100.00
2022-08-24T22:03:31.719Z,100.00
2022-08-24T22:06:09.662Z,100.00
2022-08-24T22:08:37.781Z,100.00
2022-08-24T22:11:06.781Z,100.00
2022-08-24T22:13:35.410Z,100.00
2022-08-24T22:16:03.680Z,100.00
2022-08-24T22:18:31.565Z,100.00
2022-08-24T22:20:59.666Z,100.00
2022-08-24T22:23:28.792Z,100.00
2022-08-24T22:25:56.564Z,100.00
2022-08-24T22:28:24.619Z,100.00
2022-08-24T22:30:52.506Z,100.00
2022-08-24T22:33:20.593Z,100.00
2022-08-24T22:35:50.301Z,100.00
2022-08-24T22:38:18.384Z,100.00
2022-08-24T22:40:53.837Z,100.00
2022-08-24T22:43:24.929Z,100.00
2022-08-24T22:45:53.175Z,100.00
2022-08-24T22:48:20.907Z,100.00
2022-08-24T22:50:48.683Z,100.00
2022-08-24T22:53:16.420Z,100.00
2022-08-24T22:55:44.448Z,100.00
2022-08-24T22:58:13.524Z,100.00
2022-08-24T23:06:45.296Z,100.00
2022-08-24T23:09:13.362Z,100.00
2022-08-24T23:11:41.106Z,100.00
2022-08-24T23:14:10.014Z,100.00
2022-08-24T23:16:40.440Z,100.00
2022-08-24T23:19:26.946Z,100.00
2022-08-24T23:21:56.190Z,100.00
2022-08-24T23:24:23.973Z,100.00
2022-08-24T23:26:51.826Z,100.00
2022-08-24T23:29:21.266Z,100.00
2022-08-24T23:31:49.466Z,100.00
2022-08-24T23:34:17.829Z,100.00
2022-08-24T23:36:45.962Z,100.00
2022-08-24T23:39:15.134Z,100.00
2022-08-24T23:41:46.125Z,100.00
2022-08-24T23:44:16.464Z,100.00
2022-08-24T23:46:44.576Z,100.00
2022-08-24T23:49:13.378Z,100.00
2022-08-24T23:51:41.781Z,100.00
2022-08-24T23:54:11.409Z,100.00
2022-08-24T23:56:43.759Z,100.00
2022-08-24T23:59:13.948Z,100.00
